Terminal Aerodrome Forecast
Issued by NWS

Home | Current Version | Previous Version | Text Only | Print | Product List | Glossary On
Versions: 1 2 3 4 5 6 7 8 9 10 11 12 13 14 15 16 17 18 19 20
398
FTUS42 KFFC 210528
TAFPDK
TAF
KPDK 210528Z 2106/2206 10003KT P6SM BKN250
     FM211400 12006KT P6SM BKN040
     FM211800 12008KT P6SM VCSH SCT015 BKN035
     FM212000 12010KT 5SM -SHRA BKN015
     FM220100 10004KT 3SM -SHRA OVC007=

USA.gov is the U.S. government's official web portal to all federal, state and local government web resources and services.